createdAt,value
2022-08-21T00:01:33.191Z,95253.78
2022-08-21T00:03:59.594Z,95257.34
2022-08-21T00:06:25.980Z,95245.34
2022-08-21T00:08:52.377Z,95246.72
2022-08-21T00:11:18.768Z,95250.47
2022-08-21T00:13:45.168Z,95247.78
2022-08-21T00:16:11.575Z,95244.50
2022-08-21T00:18:37.983Z,95242.25
2022-08-21T00:21:04.368Z,95237.59
2022-08-21T00:23:30.760Z,95243.59
2022-08-21T00:25:57.174Z,95247.03
2022-08-21T00:28:23.579Z,95246.28
2022-08-21T00:30:49.978Z,95248.84
2022-08-21T00:33:16.392Z,95246.44
2022-08-21T00:35:42.810Z,95248.69
2022-08-21T00:38:09.218Z,95250.63
2022-08-21T00:40:37.477Z,95240.88
2022-08-21T00:43:03.902Z,95243.00
2022-08-21T00:45:30.290Z,95240.88
2022-08-21T00:47:56.686Z,95236.09
2022-08-21T00:50:23.072Z,95234.31
2022-08-21T00:52:49.482Z,95229.81
2022-08-21T00:55:16.542Z,95231.31
2022-08-21T00:57:42.935Z,95232.78
2022-08-21T01:00:09.350Z,95230.13
2022-08-21T01:02:35.741Z,95234.00
2022-08-21T01:05:02.122Z,95233.13
2022-08-21T01:07:28.541Z,95233.72
2022-08-21T01:09:54.940Z,95238.81
2022-08-21T01:12:21.327Z,95236.72
2022-08-21T01:14:47.716Z,95233.44
2022-08-21T01:17:14.112Z,95232.22
2022-08-21T01:19:40.535Z,95230.72
2022-08-21T01:22:07.021Z,95229.69
2022-08-21T01:24:33.426Z,95231.75
2022-08-21T01:26:59.835Z,95233.72
2022-08-21T01:29:26.245Z,95229.81
2022-08-21T01:31:52.677Z,95226.97
2022-08-21T01:34:19.259Z,95222.34
2022-08-21T01:36:45.697Z,95228.31
2022-08-21T01:39:12.103Z,95222.78
2022-08-21T01:41:38.522Z,95221.44
2022-08-21T01:44:04.929Z,95218.72
2022-08-21T01:46:31.321Z,95213.34
2022-08-21T01:48:57.752Z,95211.84
2022-08-21T01:51:24.175Z,95205.09
2022-08-21T01:53:50.585Z,95210.34
2022-08-21T01:56:16.980Z,95210.03
2022-08-21T01:58:43.376Z,95205.84
2022-08-21T02:01:09.834Z,95209.28
2022-08-21T02:03:36.485Z,95210.75
2022-08-21T02:06:02.923Z,95203.44
2022-08-21T02:08:29.313Z,95195.06
2022-08-21T02:10:55.703Z,95200.44
2022-08-21T02:13:22.141Z,95199.69
2022-08-21T02:15:48.561Z,95198.06
2022-08-21T02:18:14.967Z,95205.69
2022-08-21T02:20:41.343Z,95199.69
2022-08-21T02:23:07.749Z,95189.69
2022-08-21T02:25:34.162Z,95196.84
2022-08-21T02:28:00.561Z,95195.03
2022-08-21T02:30:26.964Z,95191.16
2022-08-21T02:32:53.337Z,95192.34
2022-08-21T02:35:19.733Z,95185.47
2022-08-21T02:37:46.173Z,95183.84
2022-08-21T02:40:12.643Z,95194.16
2022-08-21T02:42:39.136Z,95185.66
2022-08-21T02:45:05.513Z,95184.47
2022-08-21T02:47:31.916Z,95186.09
2022-08-21T02:49:58.302Z,95187.28
2022-08-21T02:52:24.725Z,95183.09
2022-08-21T02:54:51.105Z,95192.03
2022-08-21T02:57:17.523Z,95188.28
2022-08-21T02:59:43.907Z,95186.50
2022-08-21T03:02:10.291Z,95187.25
2022-08-21T03:04:36.689Z,95185.13
2022-08-21T03:07:03.083Z,95185.13
2022-08-21T03:09:31.601Z,95189.31
2022-08-21T03:11:58.386Z,95187.25
2022-08-21T03:14:24.779Z,95189.03
2022-08-21T03:16:51.190Z,95189.78
2022-08-21T03:19:17.591Z,95187.25
2022-08-21T03:21:44.006Z,95184.53
2022-08-21T03:24:10.414Z,95176.75
2022-08-21T03:26:36.800Z,95178.41
2022-08-21T03:29:06.503Z,95180.03
2022-08-21T03:31:32.917Z,95171.22
2022-08-21T03:33:59.300Z,95173.31
2022-08-21T03:36:25.680Z,95181.19
2022-08-21T03:38:52.070Z,95177.00
2022-08-21T03:41:18.488Z,95174.94
2022-08-21T03:43:44.877Z,95180.31
2022-08-21T03:46:11.314Z,95173.88
2022-08-21T03:48:37.731Z,95171.78
2022-08-21T03:51:04.106Z,95174.28
2022-08-21T03:53:30.537Z,95177.09
2022-08-21T03:55:56.928Z,95177.84
2022-08-21T03:58:23.326Z,95177.53
2022-08-21T04:00:50.896Z,95181.47
2022-08-21T04:03:17.325Z,95181.34
2022-08-21T04:05:43.726Z,95186.91
2022-08-21T04:08:10.125Z,95189.59
2022-08-21T04:10:36.536Z,95191.66
2022-08-21T04:13:02.940Z,95188.22
2022-08-21T04:15:29.354Z,95194.09
2022-08-21T04:17:55.849Z,95189.78
2022-08-21T04:20:22.327Z,95188.28
2022-08-21T04:22:48.726Z,95189.91
2022-08-21T04:25:15.109Z,95187.00
2022-08-21T04:27:41.509Z,95181.97
2022-08-21T04:30:07.942Z,95177.84
2022-08-21T04:32:34.333Z,95184.59
2022-08-21T04:35:00.788Z,95178.94
2022-08-21T04:37:27.181Z,95181.19
2022-08-21T04:39:53.738Z,95180.97
2022-08-21T04:42:20.195Z,95181.19
2022-08-21T04:44:46.589Z,95179.88
2022-08-21T04:47:12.990Z,95187.03
2022-08-21T04:49:39.407Z,95181.50
2022-08-21T04:52:05.782Z,95176.16
2022-08-21T04:54:32.180Z,95188.72
2022-08-21T04:56:58.668Z,95190.66
2022-08-21T04:59:25.061Z,95181.53
2022-08-21T05:01:51.527Z,95190.50
2022-08-21T05:04:18.001Z,95190.78
2022-08-21T05:06:44.457Z,95187.84
2022-08-21T05:09:10.853Z,95194.41
2022-08-21T05:11:37.255Z,95183.03
2022-08-21T05:14:03.646Z,95180.66
2022-08-21T05:16:36.879Z,95182.13
2022-08-21T05:19:04.257Z,95192.75
2022-08-21T05:21:30.633Z,95181.84
2022-08-21T05:23:57.059Z,95186.94
2022-08-21T05:26:23.440Z,95190.03
2022-08-21T05:28:49.837Z,95197.94
2022-08-21T05:31:16.228Z,95191.47
2022-08-21T05:33:44.005Z,95188.94
2022-08-21T05:36:13.881Z,95188.69
2022-08-21T05:38:40.294Z,95196.75
2022-08-21T05:41:06.714Z,95198.97
2022-08-21T05:43:33.151Z,95193.09
2022-08-21T05:45:59.544Z,95188.22
2022-08-21T05:48:25.943Z,95194.03
2022-08-21T05:50:52.326Z,95178.50
2022-08-21T05:53:18.711Z,95168.06
2022-08-21T05:55:46.572Z,95182.59
2022-08-21T05:58:13.305Z,95177.06
2022-08-21T06:00:39.727Z,95172.88
2022-08-21T06:03:06.137Z,95175.16
2022-08-21T06:05:36.802Z,95184.09
2022-08-21T06:08:04.047Z,95177.38
2022-08-21T06:10:30.425Z,95174.97
2022-08-21T06:12:56.878Z,95177.66
2022-08-21T06:15:23.306Z,95181.53
2022-08-21T06:17:49.723Z,95174.38
2022-08-21T06:20:16.130Z,95172.91
2022-08-21T06:22:42.546Z,95172.91
2022-08-21T06:25:08.926Z,95166.34
2022-08-21T06:27:35.316Z,95165.44
2022-08-21T06:30:01.712Z,95169.91
2022-08-21T06:32:28.084Z,95170.72
2022-08-21T06:34:54.503Z,95168.78
2022-08-21T06:37:20.883Z,95169.69
2022-08-21T06:39:47.306Z,95175.50
2022-08-21T06:42:15.964Z,95176.94
2022-08-21T06:44:42.385Z,95175.66
2022-08-21T06:47:08.786Z,95176.56
2022-08-21T06:49:35.188Z,95168.50
2022-08-21T06:52:01.637Z,95180.91
2022-08-21T06:54:28.037Z,95169.41
2022-08-21T06:56:54.441Z,95165.66
2022-08-21T06:59:20.835Z,95168.66
2022-08-21T07:01:47.302Z,95171.66
2022-08-21T07:04:13.803Z,95170.59
2022-08-21T07:06:40.209Z,95182.25
2022-08-21T07:09:06.622Z,95177.63
2022-08-21T07:11:33.047Z,95180.78
2022-08-21T07:14:10.215Z,95182.25
2022-08-21T07:16:46.874Z,95183.75
2022-08-21T07:19:13.268Z,95183.47
2022-08-21T07:21:39.667Z,95183.00
2022-08-21T07:24:06.051Z,95192.44
2022-08-21T07:26:32.451Z,95186.75
2022-08-21T07:28:58.870Z,95194.81
2022-08-21T07:31:25.270Z,95196.13
2022-08-21T07:33:51.648Z,95193.22
2022-08-21T07:36:18.051Z,95196.56
2022-08-21T07:38:44.425Z,95191.88
2022-08-21T07:41:10.827Z,95193.19
2022-08-21T07:43:45.958Z,95196.06
2022-08-21T07:46:12.718Z,95188.41
2022-08-21T07:48:39.133Z,95191.47
2022-08-21T07:51:05.531Z,95188.09
2022-08-21T07:53:31.999Z,95190.78
2022-08-21T07:55:58.430Z,95190.03
2022-08-21T07:58:24.814Z,95189.09
2022-08-21T08:00:51.285Z,95196.44
2022-08-21T08:03:20.591Z,95187.94
2022-08-21T08:05:55.520Z,95187.78
2022-08-21T08:08:22.003Z,95184.06
2022-08-21T08:10:48.424Z,95171.06
2022-08-21T08:13:14.844Z,95179.88
2022-08-21T08:15:41.253Z,95173.84
2022-08-21T08:18:09.277Z,95167.56
2022-08-21T08:20:35.675Z,95167.88
2022-08-21T08:23:02.269Z,95171.72
2022-08-21T08:25:32.842Z,95169.97
2022-08-21T08:28:03.144Z,95168.66
2022-08-21T08:30:33.761Z,95165.50
2022-08-21T08:33:00.458Z,95166.06
2022-08-21T08:35:27.650Z,95164.28
2022-08-21T08:37:54.055Z,95172.22
2022-08-21T08:40:20.552Z,95172.25
2022-08-21T08:42:47.036Z,95167.47
2022-08-21T08:45:13.454Z,95170.00
2022-08-21T08:47:39.859Z,95166.53
2022-08-21T08:50:06.258Z,95161.19
2022-08-21T08:52:32.687Z,95161.03
2022-08-21T08:54:59.089Z,95154.16
2022-08-21T08:57:25.492Z,95143.25
2022-08-21T08:59:51.885Z,95142.03
2022-08-21T09:02:20.679Z,95134.13
2022-08-21T09:04:47.613Z,95140.22
2022-08-21T09:07:14.006Z,95141.56
2022-08-21T09:09:40.405Z,95144.75
2022-08-21T09:12:06.820Z,95134.56
2022-08-21T09:14:33.243Z,95131.72
2022-08-21T09:16:59.650Z,95140.09
2022-08-21T09:19:26.062Z,95130.53
2022-08-21T09:21:52.465Z,95130.84
2022-08-21T09:24:18.861Z,95127.09
2022-08-21T09:26:45.257Z,95128.69
2022-08-21T09:29:11.650Z,95125.59
2022-08-21T09:31:38.054Z,95124.16
2022-08-21T09:34:04.433Z,95131.09
2022-08-21T09:36:30.826Z,95127.16
2022-08-21T09:38:57.212Z,95131.38
2022-08-21T09:41:23.595Z,95124.53
2022-08-21T09:43:50.006Z,95125.88
2022-08-21T09:46:16.401Z,95121.38
2022-08-21T09:48:42.788Z,95120.16
2022-08-21T09:51:10.086Z,95114.97
2022-08-21T09:53:36.472Z,95106.09
2022-08-21T09:56:02.874Z,95106.91
2022-08-21T09:58:29.279Z,95115.31
2022-08-21T10:00:55.697Z,95115.03
2022-08-21T10:03:22.118Z,95112.47
2022-08-21T10:05:48.519Z,95113.94
2022-08-21T10:08:14.924Z,95110.63
2022-08-21T10:10:41.330Z,95105.38
2022-08-21T10:13:07.724Z,95103.63
2022-08-21T10:15:34.121Z,95096.31
2022-08-21T10:18:00.527Z,95094.97
2022-08-21T10:20:28.771Z,95093.28
2022-08-21T10:22:55.173Z,95092.22
2022-08-21T10:25:21.615Z,95092.56
2022-08-21T10:27:48.012Z,95088.06
2022-08-21T10:30:14.395Z,95080.66
2022-08-21T10:32:40.767Z,95091.00
2022-08-21T10:35:09.685Z,95082.13
2022-08-21T10:37:36.052Z,95079.75
2022-08-21T10:40:02.515Z,95071.09
2022-08-21T10:42:28.947Z,95082.50
2022-08-21T10:44:55.341Z,95073.63
2022-08-21T10:47:21.725Z,95073.16
2022-08-21T10:49:48.108Z,95071.28
2022-08-21T10:52:14.521Z,95071.38
2022-08-21T10:54:40.953Z,95065.16
2022-08-21T10:57:07.392Z,95061.75
2022-08-21T10:59:38.469Z,95058.47
2022-08-21T11:02:05.255Z,95056.88
2022-08-21T11:04:34.126Z,95058.47
2022-08-21T11:07:17.280Z,95059.31
2022-08-21T11:09:44.180Z,95050.91
2022-08-21T11:12:11.473Z,95051.78
2022-08-21T11:14:38.831Z,95054.22
2022-08-21T11:17:05.556Z,95049.19
2022-08-21T11:19:32.004Z,95047.69
2022-08-21T11:21:59.754Z,95054.66
2022-08-21T11:24:26.151Z,95055.97
2022-08-21T11:26:52.556Z,95047.75
2022-08-21T11:29:18.955Z,95040.50
2022-08-21T11:31:45.339Z,95036.88
2022-08-21T11:34:11.718Z,95034.94
2022-08-21T11:36:38.172Z,95035.25
2022-08-21T11:39:04.571Z,95038.09
2022-08-21T11:41:30.963Z,95034.44
2022-08-21T11:43:57.365Z,95026.81
2022-08-21T11:46:23.753Z,95024.09
2022-08-21T11:48:50.187Z,95024.94
2022-08-21T11:51:16.597Z,95024.78
2022-08-21T11:53:43.017Z,95018.09
2022-08-21T11:56:09.431Z,95019.03
2022-08-21T11:58:35.842Z,95016.75
2022-08-21T12:01:02.258Z,95022.25
2022-08-21T12:03:28.655Z,95018.13
2022-08-21T12:05:55.047Z,95016.22
2022-08-21T12:08:21.429Z,95015.94
2022-08-21T12:10:47.855Z,95020.69
2022-08-21T12:13:14.237Z,95013.47
2022-08-21T12:15:40.671Z,95018.53
2022-08-21T12:18:08.408Z,95015.09
2022-08-21T12:20:34.812Z,95013.84
2022-08-21T12:23:01.201Z,95009.38
2022-08-21T12:25:28.897Z,95003.13
2022-08-21T12:27:55.300Z,95000.84
2022-08-21T12:30:21.685Z,94988.44
2022-08-21T12:32:53.688Z,95005.25
2022-08-21T12:35:24.984Z,94999.19
2022-08-21T12:37:51.879Z,94996.91
2022-08-21T12:40:18.341Z,94996.59
2022-08-21T12:42:44.765Z,94993.91
2022-08-21T12:45:11.140Z,95006.94
2022-08-21T12:47:37.558Z,95001.31
2022-08-21T12:50:04.017Z,94998.06
2022-08-21T12:52:30.473Z,95001.56
2022-08-21T12:54:56.902Z,94998.47
2022-08-21T12:57:23.293Z,94997.75
2022-08-21T12:59:49.675Z,95003.09
2022-08-21T13:02:16.152Z,94999.13
2022-08-21T13:04:42.601Z,94992.22
2022-08-21T13:07:08.990Z,94989.28
2022-08-21T13:09:35.428Z,94988.56
2022-08-21T13:12:01.837Z,94986.66
2022-08-21T13:14:28.275Z,94998.19
2022-08-21T13:16:54.683Z,94988.59
2022-08-21T13:19:24.015Z,94988.09
2022-08-21T13:21:50.635Z,94974.16
2022-08-21T13:24:40.697Z,94973.00
2022-08-21T13:27:03.456Z,94980.06
2022-08-21T13:29:29.846Z,94977.78
2022-08-21T13:31:56.285Z,94975.63
2022-08-21T13:34:22.678Z,94972.56
2022-08-21T13:36:49.071Z,94972.72
2022-08-21T13:39:15.470Z,94980.88
2022-08-21T13:41:41.857Z,94978.38
2022-08-21T13:44:08.244Z,94972.72
2022-08-21T13:46:34.660Z,94971.97
2022-08-21T13:49:01.099Z,94972.47
2022-08-21T13:51:27.489Z,94967.03
2022-08-21T13:53:53.878Z,94967.22
2022-08-21T13:56:20.325Z,94963.72
2022-08-21T13:58:47.332Z,94961.16
2022-08-21T14:01:13.782Z,94961.91
2022-08-21T14:03:40.212Z,94959.09
2022-08-21T14:06:06.657Z,94953.63
2022-08-21T14:08:33.049Z,94961.22
2022-08-21T14:10:59.423Z,94956.56
2022-08-21T14:13:25.828Z,94952.59
2022-08-21T14:15:52.207Z,94957.84
2022-08-21T14:18:18.599Z,94956.75
2022-08-21T14:20:45.011Z,94952.78
2022-08-21T14:23:11.391Z,94949.25
2022-08-21T14:25:38.230Z,94943.00
2022-08-21T14:28:10.268Z,94948.28
2022-08-21T14:30:36.659Z,94946.88
2022-08-21T14:33:03.307Z,94948.75
2022-08-21T14:35:29.705Z,94946.44
2022-08-21T14:37:56.193Z,94947.19
2022-08-21T14:40:22.631Z,94950.31
2022-08-21T14:42:49.051Z,94950.63
2022-08-21T14:45:15.452Z,94947.41
2022-08-21T14:47:42.683Z,94941.13
2022-08-21T14:50:09.102Z,94941.84
2022-08-21T14:52:35.510Z,94934.88
2022-08-21T14:55:01.894Z,94931.25
2022-08-21T14:57:28.296Z,94930.84
2022-08-21T14:59:57.010Z,94928.59
2022-08-21T15:02:26.418Z,94932.94
2022-08-21T15:04:52.808Z,94932.31
2022-08-21T15:07:19.184Z,94927.06
2022-08-21T15:09:45.561Z,94931.75
2022-08-21T15:12:11.979Z,94934.88
2022-08-21T15:14:38.394Z,94919.63
2022-08-21T15:17:04.770Z,94930.72
2022-08-21T15:19:31.186Z,94922.56
2022-08-21T15:21:57.574Z,94926.41
2022-08-21T15:24:23.973Z,94924.59
2022-08-21T15:26:50.371Z,94927.69
2022-08-21T15:29:22.701Z,94922.09
2022-08-21T15:31:49.391Z,94918.34
2022-08-21T15:34:15.786Z,94912.63
2022-08-21T15:36:42.210Z,94918.16
2022-08-21T15:39:08.594Z,94914.75
2022-08-21T15:41:35.018Z,94904.97
2022-08-21T15:44:01.479Z,94895.38
2022-08-21T15:46:27.882Z,94900.38
2022-08-21T15:48:59.248Z,94902.78
2022-08-21T15:51:26.230Z,94905.84
2022-08-21T15:53:52.639Z,94897.28
2022-08-21T15:56:19.142Z,94906.53
2022-08-21T15:58:45.534Z,94900.63
2022-08-21T16:01:11.964Z,94901.50
2022-08-21T16:03:38.400Z,94901.34
2022-08-21T16:06:04.777Z,94893.13
2022-08-21T16:08:31.164Z,94898.47
2022-08-21T16:10:57.553Z,94898.50
2022-08-21T16:13:23.952Z,94890.91
2022-08-21T16:15:50.377Z,94897.88
2022-08-21T16:18:16.780Z,94899.88
2022-08-21T16:20:43.185Z,94898.16
2022-08-21T16:23:09.574Z,94898.13
2022-08-21T16:25:35.959Z,94893.91
2022-08-21T16:28:03.135Z,94889.69
2022-08-21T16:30:30.168Z,94893.66
2022-08-21T16:32:56.677Z,94889.91
2022-08-21T16:35:23.115Z,94894.56
2022-08-21T16:37:53.012Z,94891.00
2022-08-21T16:40:19.878Z,94893.19
2022-08-21T16:42:46.306Z,94887.41
2022-08-21T16:45:12.699Z,94890.34
2022-08-21T16:47:39.098Z,94887.66
2022-08-21T16:50:05.501Z,94888.34
2022-08-21T16:52:31.895Z,94895.47
2022-08-21T16:54:58.314Z,94892.41
2022-08-21T16:57:24.710Z,94892.72
2022-08-21T16:59:51.103Z,94893.72
2022-08-21T17:02:17.500Z,94894.69
2022-08-21T17:04:43.926Z,94891.00
2022-08-21T17:07:10.322Z,94888.81
2022-08-21T17:09:36.723Z,94894.50
2022-08-21T17:12:03.117Z,94894.75
2022-08-21T17:14:29.527Z,94886.84
2022-08-21T17:16:55.931Z,94899.16
2022-08-21T17:19:22.355Z,94896.69
2022-08-21T17:21:48.781Z,94888.31
2022-08-21T17:24:15.177Z,94890.56
2022-08-21T17:26:41.596Z,94894.53
2022-08-21T17:29:07.988Z,94895.28
2022-08-21T17:31:34.393Z,94901.69
2022-08-21T17:34:01.167Z,94891.31
2022-08-21T17:36:27.568Z,94896.25
2022-08-21T17:38:53.949Z,94893.75
2022-08-21T17:41:20.347Z,94901.41
2022-08-21T17:43:46.738Z,94902.88
2022-08-21T17:46:13.261Z,94904.59
2022-08-21T17:48:39.667Z,94911.25
2022-08-21T17:51:09.475Z,94903.59
2022-08-21T17:53:37.391Z,94904.59
2022-08-21T17:56:03.774Z,94910.53
2022-08-21T17:58:30.182Z,94903.59
2022-08-21T18:00:56.606Z,94912.47
2022-08-21T18:03:23.047Z,94921.53
2022-08-21T18:05:49.420Z,94916.84
2022-08-21T18:08:16.030Z,94919.56
2022-08-21T18:10:42.422Z,94920.78
2022-08-21T18:13:08.827Z,94919.22
2022-08-21T18:15:35.234Z,94916.19
2022-08-21T18:18:01.645Z,94922.19
2022-08-21T18:20:28.090Z,94923.13
2022-08-21T18:22:54.506Z,94920.56
2022-08-21T18:25:20.915Z,94923.50
2022-08-21T18:27:47.308Z,94924.41
2022-08-21T18:30:13.710Z,94919.69
2022-08-21T18:32:40.099Z,94924.47
2022-08-21T18:35:06.496Z,94923.94
2022-08-21T18:37:32.955Z,94926.16
2022-08-21T18:39:59.401Z,94932.13
2022-08-21T18:42:28.450Z,94932.25
2022-08-21T18:44:55.641Z,94929.06
2022-08-21T18:47:22.340Z,94930.72
2022-08-21T18:49:48.734Z,94931.47
2022-08-21T18:52:17.780Z,94934.16
2022-08-21T18:54:46.779Z,94946.69
2022-08-21T18:57:16.129Z,94950.59
2022-08-21T18:59:42.853Z,94943.84
2022-08-21T19:02:09.266Z,94942.09
2022-08-21T19:07:22.725Z,94941.97
2022-08-21T19:12:35.517Z,94945.22
2022-08-21T19:15:01.915Z,94951.03
2022-08-21T19:17:29.236Z,94947.56
2022-08-21T19:19:55.626Z,94949.81
2022-08-21T19:22:22.043Z,94958.19
2022-08-21T19:27:34.862Z,94955.88
2022-08-21T19:30:01.270Z,94956.63
2022-08-21T19:32:29.415Z,94955.81
2022-08-21T19:34:55.936Z,94954.75
2022-08-21T19:37:24.479Z,94954.66
2022-08-21T19:39:50.921Z,94949.53
2022-08-21T19:42:17.364Z,94946.75
2022-08-21T19:44:43.824Z,94950.19
2022-08-21T19:47:10.412Z,94954.31
2022-08-21T19:49:38.545Z,94951.50
2022-08-21T19:52:13.036Z,94942.03
2022-08-21T19:54:41.261Z,94948.81
2022-08-21T19:57:11.979Z,94947.81
2022-08-21T19:59:38.676Z,94950.59
2022-08-21T20:02:05.674Z,94947.63
2022-08-21T20:04:32.120Z,94942.28
2022-08-21T20:06:58.540Z,94943.50
2022-08-21T20:09:25.269Z,94938.69
2022-08-21T20:11:55.507Z,94944.09
2022-08-21T20:14:22.062Z,94945.78
2022-08-21T20:16:48.707Z,94939.63
2022-08-21T20:19:19.445Z,94938.69
2022-08-21T20:21:46.133Z,94936.66
2022-08-21T20:24:14.583Z,94945.22
2022-08-21T20:26:41.983Z,94942.22
2022-08-21T20:29:17.120Z,94936.66
2022-08-21T20:31:51.023Z,94937.41
2022-08-21T20:34:17.437Z,94940.56
2022-08-21T20:36:44.571Z,94936.28
2022-08-21T20:39:13.911Z,94945.44
2022-08-21T20:41:40.870Z,94943.47
2022-08-21T20:44:08.646Z,94951.41
2022-08-21T20:46:41.167Z,94953.16
2022-08-21T20:49:08.298Z,94945.91
2022-08-21T20:51:34.823Z,94945.09
2022-08-21T20:54:01.209Z,94944.63
2022-08-21T20:56:28.293Z,94959.44
2022-08-21T20:58:56.426Z,94950.19
2022-08-21T21:01:22.928Z,94947.13
2022-08-21T21:03:49.359Z,94946.59
2022-08-21T21:06:16.772Z,94946.75
2022-08-21T21:08:46.679Z,94941.63
2022-08-21T21:11:13.810Z,94954.19
2022-08-21T21:13:43.549Z,94951.13
2022-08-21T21:16:12.699Z,94947.59
2022-08-21T21:21:28.656Z,94954.78
2022-08-21T21:23:57.624Z,94961.28
2022-08-21T21:26:25.344Z,94959.06
2022-08-21T21:28:56.402Z,94957.09
2022-08-21T21:31:22.974Z,94961.66
2022-08-21T21:33:49.379Z,94960.06
2022-08-21T21:36:15.761Z,94961.09
2022-08-21T21:38:51.643Z,94960.97
2022-08-21T21:41:18.547Z,94956.06
2022-08-21T21:43:44.948Z,94956.25
2022-08-21T21:46:12.965Z,94955.06
2022-08-21T21:48:41.260Z,94950.41
2022-08-21T21:51:12.068Z,94955.78
2022-08-21T21:53:54.469Z,94957.66
2022-08-21T21:56:20.852Z,94948.81
2022-08-21T21:58:47.245Z,94952.53
2022-08-21T22:01:13.666Z,94951.72
2022-08-21T22:03:40.905Z,94953.19
2022-08-21T22:06:07.675Z,94951.25
2022-08-21T22:08:34.089Z,94954.22
2022-08-21T22:11:09.054Z,94953.09
2022-08-21T22:13:49.630Z,94943.22
2022-08-21T22:16:17.051Z,94955.50
2022-08-21T22:18:46.170Z,94949.34
2022-08-21T22:21:12.578Z,94946.56
2022-08-21T22:23:38.957Z,94952.16
2022-08-21T22:26:05.349Z,94942.00
2022-08-21T22:28:33.858Z,94947.84
2022-08-21T22:31:00.245Z,94949.53
2022-08-21T22:33:27.062Z,94954.06
2022-08-21T22:35:53.470Z,94954.06
2022-08-21T22:38:19.895Z,94946.53
2022-08-21T22:40:48.846Z,94946.91
2022-08-21T22:43:16.953Z,94950.28
2022-08-21T22:45:43.369Z,94946.38
2022-08-21T22:48:11.126Z,94947.97
2022-08-21T22:50:41.149Z,94943.38
2022-08-21T22:53:07.638Z,94951.03
2022-08-21T22:55:34.027Z,94951.19
2022-08-21T22:58:00.468Z,94946.31
2022-08-21T23:00:26.996Z,94935.28
2022-08-21T23:02:53.621Z,94944.91
2022-08-21T23:05:22.049Z,94944.19
2022-08-21T23:10:34.838Z,94939.25
2022-08-21T23:13:01.660Z,94942.41
2022-08-21T23:15:28.185Z,94953.00
2022-08-21T23:17:54.914Z,94950.59
2022-08-21T23:20:22.458Z,94952.94
2022-08-21T23:22:49.001Z,94959.97
2022-08-21T23:25:15.386Z,94953.00
2022-08-21T23:27:43.589Z,94948.97
2022-08-21T23:30:09.987Z,94957.84
2022-08-21T23:32:39.135Z,94961.13
2022-08-21T23:35:09.857Z,94958.22
2022-08-21T23:37:42.498Z,94958.06
2022-08-21T23:40:16.001Z,94958.72
2022-08-21T23:42:56.459Z,94952.66
2022-08-21T23:45:24.322Z,94957.47
2022-08-21T23:47:59.479Z,94953.56
2022-08-21T23:50:25.867Z,94950.88
2022-08-21T23:52:52.275Z,94947.94
2022-08-21T23:55:18.701Z,94956.19
2022-08-21T23:57:45.111Z,94953.03
